Time;durP1;ratioP1;P1;durP2;ratioP2;P2;SDS_P1;SDS_P2;PMS_P1;PMS_P2;Temp;Humidity;BMP_temperature;BMP_pressure;BME280_temperature;BME280_humidity;BME280_pressure;Samples;Min_cycle;Max_cycle;Signal;HPM_P1;HPM_P2
2021/05/01 00:00:13;;;;;;;1.80;1.70;;;15.40;58.40;;;;;;5092914;28;20020;-64
2021/05/01 00:02:39;;;;;;;2.85;1.50;;;15.40;58.40;;;;;;5093171;28;20032;-63
2021/05/01 00:05:05;;;;;;;2.38;1.55;;;15.40;58.30;;;;;;5093014;28;20491;-63
2021/05/01 00:07:31;;;;;;;2.30;1.52;;;15.40;58.30;;;;;;5091353;28;20423;-64
2021/05/01 00:09:56;;;;;;;3.08;1.38;;;15.30;58.30;;;;;;5092570;28;20016;-63
2021/05/01 00:12:22;;;;;;;2.92;1.73;;;15.30;58.30;;;;;;5092404;28;20056;-63
2021/05/01 00:14:47;;;;;;;2.30;1.30;;;15.40;58.30;;;;;;5092893;28;20073;-63
2021/05/01 00:17:13;;;;;;;2.63;1.90;;;15.70;58.40;;;;;;5092563;28;20379;-63
2021/05/01 00:19:39;;;;;;;1.90;1.30;;;15.30;58.20;;;;;;5092604;28;20035;-64
2021/05/01 00:22:04;;;;;;;1.92;1.30;;;15.30;58.30;;;;;;5092457;28;20046;-64
2021/05/01 00:24:30;;;;;;;13.27;1.73;;;15.30;58.20;;;;;;5092626;28;20093;-63
2021/05/01 00:26:55;;;;;;;2.22;1.90;;;15.30;58.20;;;;;;5092670;28;20538;-63
2021/05/01 00:29:21;;;;;;;3.13;1.55;;;15.10;58.10;;;;;;5092621;28;20020;-63
2021/05/01 00:31:46;;;;;;;3.70;1.70;;;15.30;58.20;;;;;;5092370;28;20031;-63
2021/05/01 00:34:13;;;;;;;3.47;1.83;;;15.10;58.10;;;;;;5091127;28;20515;-63
2021/05/01 00:36:39;;;;;;;2.65;1.45;;;15.40;58.20;;;;;;5092453;28;20131;-64
2021/05/01 00:39:05;;;;;;;2.10;1.60;;;15.20;83.30;;;;;;5091117;28;20494;-64
2021/05/01 00:41:31;;;;;;;1.40;1.30;;;15.20;58.10;;;;;;5092716;28;20031;-63
2021/05/01 00:43:57;;;;;;;2.08;1.50;;;15.20;58.10;;;;;;5092682;28;20017;-63
2021/05/01 00:46:23;;;;;;;2.05;1.52;;;15.20;58.10;;;;;;5092466;28;20036;-63
2021/05/01 00:48:48;;;;;;;2.35;1.52;;;15.20;58.20;;;;;;5092339;28;20502;-63
2021/05/01 00:51:14;;;;;;;2.28;1.63;;;15.20;58.10;;;;;;5092441;28;20030;-63
2021/05/01 00:53:40;;;;;;;3.33;1.73;;;15.20;58.10;;;;;;5092065;28;20016;-63
2021/05/01 00:56:06;;;;;;;1.73;1.27;;;15.20;58.10;;;;;;5092495;28;20074;-63
2021/05/01 00:58:32;;;;;;;2.38;1.88;;;15.20;58.10;;;;;;5092716;28;20032;-63
2021/05/01 01:01:17;;;;;;;1.80;1.58;;;15.20;58.10;;;;;;5092165;28;20148;-63
2021/05/01 01:03:43;;;;;;;3.95;1.33;;;15.40;82.40;;;;;;5090856;28;20020;-63
2021/05/01 01:06:09;;;;;;;1.88;1.63;;;15.20;58.10;;;;;;5090854;28;20078;-63
2021/05/01 01:08:36;;;;;;;1.60;1.50;;;15.20;58.10;;;;;;5092124;28;20361;-63
2021/05/01 01:11:02;;;;;;;2.90;1.75;;;15.10;58.10;;;;;;5092506;28;20024;-63
2021/05/01 01:13:28;;;;;;;2.15;1.67;;;14.90;58.00;;;;;;5092331;28;20066;-63
2021/05/01 01:15:54;;;;;;;2.53;1.67;;;15.10;58.70;;;;;;5092335;28;20077;-63
2021/05/01 01:18:19;;;;;;;2.55;1.55;;;15.10;58.00;;;;;;5092301;28;20028;-63
2021/05/01 01:20:45;;;;;;;2.58;1.50;;;15.10;58.00;;;;;;5074012;28;20021;-63
2021/05/01 01:23:11;;;;;;;2.35;1.52;;;15.10;58.00;;;;;;5091890;28;20024;-63
2021/05/01 01:25:37;;;;;;;2.35;1.50;;;14.80;57.80;;;;;;5092390;28;20099;-63
2021/05/01 01:28:02;;;;;;;2.25;1.70;;;15.10;58.10;;;;;;5092255;28;20112;-63
2021/05/01 01:30:32;;;;;;;2.47;1.58;;;15.10;57.90;;;;;;5092296;28;20662;-63
2021/05/01 01:33:08;;;;;;;1.97;1.50;;;15.10;58.00;;;;;;5092194;28;20024;-63
2021/05/01 01:35:34;;;;;;;1.70;1.60;;;15.10;57.40;;;;;;5091986;28;20044;-63
2021/05/01 01:38:00;;;;;;;2.38;1.52;;;15.20;58.00;;;;;;5092365;28;20031;-63
2021/05/01 01:40:26;;;;;;;2.70;1.80;;;15.10;58.00;;;;;;5091764;28;20388;-63
2021/05/01 01:42:53;;;;;;;1.73;1.48;;;15.00;57.90;;;;;;5092052;28;20019;-63
2021/05/01 01:45:21;;;;;;;3.17;1.75;;;15.00;58.00;;;;;;5091897;28;20025;-63
2021/05/01 01:47:47;;;;;;;2.03;1.40;;;15.00;57.90;;;;;;5090999;28;20032;-63
2021/05/01 01:50:17;;;;;;;1.95;1.60;;;15.00;57.90;;;;;;5094226;28;20015;-63
2021/05/01 01:52:43;;;;;;;2.65;1.63;;;15.00;57.90;;;;;;5094014;28;20028;-63
2021/05/01 01:55:14;;;;;;;1.45;1.30;;;14.90;57.80;;;;;;5096050;28;20363;-63
2021/05/01 01:57:40;;;;;;;1.95;1.40;;;15.00;57.90;;;;;;5095165;28;20052;-63
2021/05/01 02:00:09;;;;;;;1.67;1.52;;;15.30;58.00;;;;;;5095388;28;20031;-63
2021/05/01 02:02:35;;;;;;;1.55;1.27;;;15.00;57.80;;;;;;5095212;28;20024;-63
2021/05/01 02:05:00;;;;;;;2.25;1.67;;;15.10;57.90;;;;;;5095220;28;20042;-63
2021/05/01 02:07:26;;;;;;;2.08;1.20;;;15.00;57.90;;;;;;5094957;28;20085;-63
2021/05/01 02:09:51;;;;;;;2.70;1.55;;;15.00;57.80;;;;;;5095182;28;20062;-63
2021/05/01 02:12:17;;;;;;;1.40;1.30;;;14.70;57.70;;;;;;5095685;28;20035;-63
2021/05/01 02:14:43;;;;;;;1.85;1.17;;;15.00;82.10;;;;;;5095397;28;20429;-63
2021/05/01 02:17:09;;;;;;;2.47;1.52;;;14.80;57.80;;;;;;5094938;28;20020;-63
2021/05/01 02:19:34;;;;;;;1.63;1.42;;;15.50;58.10;;;;;;5095329;28;20117;-63
2021/05/01 02:22:00;;;;;;;2.10;1.20;;;14.90;57.80;;;;;;5094943;28;20465;-63
2021/05/01 02:24:25;;;;;;;1.67;1.40;;;15.40;58.00;;;;;;5094955;28;20024;-63
2021/05/01 02:26:51;;;;;;;1.30;1.20;;;14.70;57.70;;;;;;5093349;28;20110;-62
2021/05/01 02:29:16;;;;;;;1.77;1.30;;;14.80;57.70;;;;;;5094739;28;20536;-63
2021/05/01 02:31:42;;;;;;;2.60;1.48;;;14.90;57.80;;;;;;5094715;28;20024;-63
2021/05/01 02:34:08;;;;;;;2.40;1.48;;;14.70;57.70;;;;;;5094739;28;20041;-63
2021/05/01 02:36:34;;;;;;;2.00;1.45;;;14.90;57.90;;;;;;5094054;28;20122;-63
2021/05/01 02:38:59;;;;;;;2.42;1.60;;;14.60;57.60;;;;;;5094690;28;20031;-63
2021/05/01 02:41:25;;;;;;;2.17;1.15;;;15.20;58.00;;;;;;5094689;28;20024;-63
2021/05/01 02:43:51;;;;;;;2.25;1.40;;;14.80;57.70;;;;;;5094484;28;20025;-63
2021/05/01 02:46:17;;;;;;;2.38;1.73;;;14.80;57.70;;;;;;5093996;28;20039;-63
2021/05/01 02:48:43;;;;;;;1.60;1.50;;;14.80;57.70;;;;;;5094437;28;20020;-63
2021/05/01 02:51:08;;;;;;;1.50;1.40;;;14.80;57.80;;;;;;5094242;28;20066;-63
2021/05/01 02:53:34;;;;;;;2.80;1.65;;;14.80;57.70;;;;;;5094548;28;20107;-63
2021/05/01 02:55:59;;;;;;;4.82;1.75;;;14.80;57.70;;;;;;5093700;28;20104;-63
2021/05/01 02:58:25;;;;;;;2.13;1.00;;;14.80;57.70;;;;;;5094238;28;20024;-63
2021/05/01 03:00:53;;;;;;;2.72;1.33;;;14.80;57.70;;;;;;5094029;28;20039;-63
2021/05/01 03:03:18;;;;;;;3.92;1.52;;;14.80;57.70;;;;;;5092880;28;20103;-63
2021/05/01 03:05:44;;;;;;;1.98;1.42;;;14.80;82.20;;;;;;5093774;28;20177;-63
2021/05/01 03:08:09;;;;;;;1.95;1.50;;;14.80;57.70;;;;;;5094004;28;20028;-63
2021/05/01 03:10:35;;;;;;;1.63;1.48;;;14.70;57.60;;;;;;5093978;28;20020;-63
2021/05/01 03:13:01;;;;;;;1.30;1.02;;;14.80;57.70;;;;;;5093782;28;20107;-63
2021/05/01 03:15:26;;;;;;;2.58;1.40;;;14.80;57.70;;;;;;5093365;28;20024;-63
2021/05/01 03:17:52;;;;;;;1.58;1.15;;;14.60;57.60;;;;;;5092534;28;20020;-63
2021/05/01 03:20:19;;;;;;;1.67;1.40;;;14.80;57.60;;;;;;5094116;28;20016;-63
2021/05/01 03:22:47;;;;;;;3.17;1.60;;;14.80;57.70;;;;;;5093740;28;20034;-63
2021/05/01 03:25:13;;;;;;;2.58;1.55;;;14.70;57.60;;;;;;5093251;28;20043;-62
2021/05/01 03:27:39;;;;;;;1.58;1.48;;;14.70;57.60;;;;;;5093695;28;20067;-63
2021/05/01 03:30:08;;;;;;;1.95;1.40;;;14.70;57.60;;;;;;5093623;28;20027;-63
2021/05/01 03:32:33;;;;;;;1.58;1.38;;;14.70;57.60;;;;;;5093533;28;20472;-63
2021/05/01 03:34:59;;;;;;;2.65;1.65;;;14.70;57.60;;;;;;5092819;28;20047;-62
2021/05/01 03:37:25;;;;;;;2.75;1.70;;;14.70;57.60;;;;;;5092261;28;20473;-63
2021/05/01 03:39:51;;;;;;;1.85;1.42;;;14.70;57.60;;;;;;5093460;28;20085;-63
2021/05/01 03:42:17;;;;;;;2.42;1.75;;;14.70;57.60;;;;;;5093349;28;20361;-62
2021/05/01 03:44:42;;;;;;;2.05;1.50;;;14.50;57.50;;;;;;5093299;28;20467;-63
2021/05/01 03:47:08;;;;;;;1.98;1.27;;;14.20;57.40;;;;;;5093103;28;20230;-62
2021/05/01 03:49:34;;;;;;;2.17;1.52;;;14.70;57.60;;;;;;5093485;28;20074;-62
2021/05/01 03:51:59;;;;;;;1.40;1.10;;;14.80;57.60;;;;;;5093254;28;20088;-62
2021/05/01 03:54:25;;;;;;;2.13;1.20;;;14.70;57.60;;;;;;5093093;28;20031;-62
2021/05/01 03:56:50;;;;;;;1.95;1.30;;;14.30;57.40;;;;;;5092846;28;20032;-63
2021/05/01 03:59:16;;;;;;;2.55;1.50;;;14.60;57.60;;;;;;5093062;28;20016;-62
2021/05/01 04:01:42;;;;;;;1.58;1.48;;;14.60;57.50;;;;;;5093045;28;20054;-62
2021/05/01 04:04:10;;;;;;;1.70;1.20;;;14.50;57.50;;;;;;5093029;28;20016;-62
2021/05/01 04:06:36;;;;;;;2.53;1.27;;;14.50;57.50;;;;;;5093006;28;20024;-62
2021/05/01 04:09:02;;;;;;;2.63;1.40;;;14.60;57.50;;;;;;5092941;28;20020;-62
2021/05/01 04:11:28;;;;;;;1.52;1.27;;;14.60;57.50;;;;;;5092746;28;20012;-63
2021/05/01 04:13:53;;;;;;;2.42;1.63;;;14.60;57.50;;;;;;5091252;28;20557;-63
2021/05/01 04:16:19;;;;;;;1.27;1.17;;;14.60;57.50;;;;;;5091520;28;20035;-63
2021/05/01 04:18:48;;;;;;;2.13;1.25;;;14.60;57.50;;;;;;5092423;28;20024;-63
2021/05/01 04:21:17;;;;;;;1.73;1.25;;;14.60;57.50;;;;;;5092653;28;20032;-63
2021/05/01 04:23:44;;;;;;;1.88;1.25;;;14.60;57.50;;;;;;5092806;28;20031;-62
2021/05/01 04:26:09;;;;;;;2.75;1.50;;;14.60;57.50;;;;;;5092636;28;20377;-62
2021/05/01 04:28:35;;;;;;;2.22;1.55;;;14.60;57.50;;;;;;5092659;28;20035;-63
2021/05/01 04:31:01;;;;;;;2.58;1.40;;;14.50;57.50;;;;;;5092250;28;20028;-62
2021/05/01 04:33:27;;;;;;;1.48;1.13;;;14.60;57.50;;;;;;5092695;28;20400;-62
2021/05/01 04:35:53;;;;;;;2.85;1.23;;;14.50;57.50;;;;;;5092477;28;20097;-62
2021/05/01 04:38:19;;;;;;;1.52;1.27;;;14.40;57.50;;;;;;5092799;28;20024;-62
2021/05/01 04:40:44;;;;;;;1.85;1.05;;;14.50;57.50;;;;;;5092351;28;20496;-62
2021/05/01 04:43:12;;;;;;;2.67;1.40;;;;;;;;;;5092673;28;20563;-62
2021/05/01 04:45:39;;;;;;;1.92;1.05;;;14.60;57.00;;;;;;5092777;28;20035;-62
2021/05/01 04:48:06;;;;;;;2.50;1.33;;;14.50;57.50;;;;;;5092598;28;20430;-62
2021/05/01 04:50:32;;;;;;;1.65;1.05;;;14.50;57.50;;;;;;5092298;28;20015;-62
2021/05/01 04:52:58;;;;;;;3.30;1.60;;;14.50;57.50;;;;;;5091204;28;20028;-63
2021/05/01 04:55:25;;;;;;;1.77;1.20;;;14.50;57.50;;;;;;5092754;28;20020;-62
2021/05/01 04:57:52;;;;;;;1.20;1.10;;;14.50;57.50;;;;;;5092745;28;20024;-63
2021/05/01 05:00:20;;;;;;;2.45;1.40;;;14.50;57.50;;;;;;5092213;28;20027;-62
2021/05/01 05:02:46;;;;;;;2.03;1.35;;;14.50;57.50;;;;;;5092275;28;20036;-62
2021/05/01 05:05:13;;;;;;;1.92;1.00;;;14.50;57.50;;;;;;5092465;28;20020;-63
2021/05/01 05:07:38;;;;;;;2.83;1.38;;;14.60;57.70;;;;;;5092260;28;20086;-62
2021/05/01 05:10:07;;;;;;;1.42;1.30;;;14.50;57.50;;;;;;5092226;28;20054;-63
2021/05/01 05:12:32;;;;;;;3.13;1.30;;;14.50;57.50;;;;;;5092391;28;20383;-62
2021/05/01 05:14:58;;;;;;;2.35;1.35;;;14.30;57.40;;;;;;5092590;28;20009;-63
2021/05/01 05:17:24;;;;;;;1.85;1.30;;;14.60;57.60;;;;;;5091110;28;20479;-63
2021/05/01 05:19:49;;;;;;;1.65;1.00;;;14.20;57.50;;;;;;5090915;28;20032;-62
2021/05/01 05:22:15;;;;;;;2.20;1.05;;;14.60;57.60;;;;;;5092109;28;20052;-62
2021/05/01 05:24:41;;;;;;;1.30;1.08;;;14.50;57.70;;;;;;5092200;28;20028;-63
2021/05/01 05:27:07;;;;;;;1.27;1.17;;;14.40;57.50;;;;;;5096275;28;20472;-63
2021/05/01 05:29:33;;;;;;;2.60;1.40;;;14.20;57.40;;;;;;5095995;28;20103;-63
2021/05/01 05:31:59;;;;;;;1.75;1.25;;;14.40;57.50;;;;;;5094664;28;20047;-63
2021/05/01 05:34:25;;;;;;;1.27;0.90;;;14.50;57.50;;;;;;5094709;28;20104;-63
2021/05/01 05:36:51;;;;;;;1.50;1.20;;;14.60;57.60;;;;;;5095762;28;20399;-62
2021/05/01 05:39:17;;;;;;;3.35;1.15;;;14.40;57.50;;;;;;5095699;28;20496;-63
2021/05/01 05:41:43;;;;;;;1.48;0.95;;;14.40;57.50;;;;;;5095509;28;20077;-62
2021/05/01 05:44:09;;;;;;;1.50;0.90;;;14.40;57.60;;;;;;5095833;28;20087;-63
2021/05/01 05:46:35;;;;;;;1.02;0.90;;;14.50;57.60;;;;;;5096102;28;20067;-62
2021/05/01 05:49:01;;;;;;;1.88;1.20;;;14.50;57.60;;;;;;5095624;28;20460;-63
2021/05/01 05:51:26;;;;;;;1.75;1.02;;;14.40;57.60;;;;;;5094216;28;20020;-62
2021/05/01 05:53:52;;;;;;;1.67;1.08;;;14.40;57.60;;;;;;5095760;28;20537;-63
2021/05/01 05:56:18;;;;;;;1.50;0.90;;;14.50;57.60;;;;;;5095996;28;20020;-63
2021/05/01 05:58:44;;;;;;;1.73;1.30;;;14.50;57.70;;;;;;5095416;28;20484;-63
2021/05/01 06:01:10;;;;;;;1.23;0.80;;;14.40;57.60;;;;;;5095378;28;20059;-63
2021/05/01 06:03:37;;;;;;;2.42;1.00;;;14.50;57.60;;;;;;5095399;28;20472;-63
2021/05/01 06:06:07;;;;;;;1.10;1.00;;;15.10;57.90;;;;;;5095455;28;20073;-63
2021/05/01 06:08:33;;;;;;;3.67;1.30;;;14.50;57.50;;;;;;5093796;28;20024;-63
2021/05/01 06:11:03;;;;;;;1.70;1.05;;;14.50;57.50;;;;;;5094900;28;20016;-63
2021/05/01 06:13:32;;;;;;;1.00;0.73;;;14.50;57.50;;;;;;5095430;28;20044;-63
2021/05/01 06:15:59;;;;;;;1.92;1.15;;;14.50;57.40;;;;;;5095029;28;20116;-63
2021/05/01 06:18:26;;;;;;;2.72;1.00;;;14.50;57.50;;;;;;5094649;28;20457;-63
2021/05/01 06:20:53;;;;;;;1.35;0.98;;;14.90;58.00;;;;;;5095025;28;20024;-63
2021/05/01 06:23:19;;;;;;;1.70;1.17;;;14.60;58.20;;;;;;5094922;28;20069;-64
2021/05/01 06:25:48;;;;;;;1.15;0.98;;;14.70;58.30;;;;;;5094786;28;20030;-63
2021/05/01 06:28:15;;;;;;;1.08;0.90;;;14.40;58.20;;;;;;5094686;28;20031;-63
2021/05/01 06:30:42;;;;;;;2.20;1.20;;;14.60;58.40;;;;;;5094922;28;20019;-63
2021/05/01 06:33:13;;;;;;;1.77;0.98;;;14.70;58.40;;;;;;5094716;28;20020;-63
2021/05/01 06:35:39;;;;;;;1.00;1.00;;;15.30;58.80;;;;;;5094085;28;20814;-63
2021/05/01 06:38:06;;;;;;;1.10;1.00;;;14.70;58.50;;;;;;5094502;28;20027;-63
2021/05/01 06:40:36;;;;;;;3.55;1.33;;;14.40;58.30;;;;;;5093234;28;20020;-63
2021/05/01 06:43:35;;;;;;;1.70;0.88;;;14.70;58.10;;;;;;5094512;28;20031;-63
2021/05/01 06:46:02;;;;;;;2.25;0.98;;;14.80;57.80;;;;;;5093971;28;20039;-63
2021/05/01 06:48:32;;;;;;;2.13;1.15;;;14.90;57.90;;;;;;5094080;28;20429;-63
2021/05/01 06:50:59;;;;;;;1.88;0.93;;;14.90;57.90;;;;;;5094146;28;20455;-63
2021/05/01 06:53:29;;;;;;;3.08;1.00;;;15.00;58.10;;;;;;5094614;28;20051;-63
2021/05/01 06:56:01;;;;;;;1.50;0.90;;;14.90;58.20;;;;;;5094577;28;20442;-63
2021/05/01 06:58:29;;;;;;;1.98;1.50;;;15.00;58.70;;;;;;5092753;28;20370;-62
2021/05/01 07:00:57;;;;;;;1.88;1.10;;;15.20;58.90;;;;;;5093881;28;20020;-62
2021/05/01 07:03:24;;;;;;;5.22;0.95;;;15.10;58.50;;;;;;5094415;28;20024;-62
2021/05/01 07:05:51;;;;;;;1.55;1.00;;;15.10;58.10;;;;;;5092651;28;20050;-62
2021/05/01 07:08:17;;;;;;;1.83;1.10;;;15.10;57.90;;;;;;5093625;28;20032;-62
2021/05/01 07:10:43;;;;;;;2.90;1.35;;;15.20;58.00;;;;;;5093738;28;20091;-62
2021/05/01 07:13:13;;;;;;;1.67;0.95;;;15.20;58.00;;;;;;5093914;28;20028;-62
2021/05/01 07:15:39;;;;;;;;;;;15.20;58.10;;;;;;5094550;28;20024;-61
2021/05/01 07:18:05;;;;;;;3.20;1.10;;;15.20;57.80;;;;;;5093997;28;20315;-64
2021/05/01 07:20:31;;;;;;;2.55;1.20;;;15.20;58.00;;;;;;5092300;28;20028;-65
2021/05/01 07:22:56;;;;;;;1.50;1.10;;;15.20;58.00;;;;;;5094045;28;20027;-62
2021/05/01 07:25:22;;;;;;;2.50;0.90;;;15.30;58.00;;;;;;5092452;28;20145;-62
2021/05/01 07:28:05;;;;;;;1.58;0.88;;;15.00;57.80;;;;;;5093889;28;20032;-62
2021/05/01 07:30:37;;;;;;;1.42;0.90;;;15.30;57.90;;;;;;5093416;28;20024;-62
2021/05/01 07:33:31;;;;;;;1.45;1.20;;;15.30;57.80;;;;;;5093556;28;20020;-63
2021/05/01 07:36:04;;;;;;;3.40;1.10;;;15.30;58.20;;;;;;5093342;28;20056;-62
2021/05/01 07:38:31;;;;;;;5.18;0.90;;;15.40;58.80;;;;;;5092856;28;20016;-62
2021/05/01 07:41:00;;;;;;;2.65;0.90;;;15.40;58.30;;;;;;5093575;28;20024;-62
2021/05/01 07:43:29;;;;;;;2.08;1.00;;;15.40;58.20;;;;;;5093399;28;20046;-62
2021/05/01 07:46:06;;;;;;;3.25;1.38;;;15.40;58.20;;;;;;5093266;28;20039;-62
2021/05/01 07:48:32;;;;;;;2.80;0.93;;;15.60;58.40;;;;;;5092246;28;20084;-65
2021/05/01 07:50:58;;;;;;;3.13;1.10;;;15.40;58.40;;;;;;5093497;28;20423;-63
2021/05/01 07:53:25;;;;;;;8.70;1.40;;;15.30;58.30;;;;;;5092032;28;20069;-63
2021/05/01 07:55:51;;;;;;;6.63;1.42;;;15.30;58.80;;;;;;5091841;28;20020;-62
2021/05/01 07:58:16;;;;;;;3.13;1.20;;;15.60;58.80;;;;;;5092484;28;20493;-61
2021/05/01 08:00:43;;;;;;;3.60;1.30;;;15.30;58.20;;;;;;5093342;28;20016;-61
2021/05/01 08:03:09;;;;;;;1.90;0.95;;;15.60;58.80;;;;;;5093327;28;20107;-60
2021/05/01 08:05:35;;;;;;;1.55;0.80;;;15.60;58.70;;;;;;5092922;28;20031;-64
2021/05/01 08:08:01;;;;;;;7.47;1.35;;;15.60;58.70;;;;;;5091257;28;20036;-64
2021/05/01 08:10:27;;;;;;;5.65;1.25;;;15.40;59.10;;;;;;5092920;28;20012;-63
2021/05/01 08:12:52;;;;;;;2.58;1.10;;;15.70;59.30;;;;;;5092873;28;20016;-64
2021/05/01 08:15:18;;;;;;;7.85;1.17;;;15.80;58.70;;;;;;5092821;28;20032;-64
2021/05/01 08:17:44;;;;;;;1.98;0.98;;;15.80;58.50;;;;;;5092509;28;20465;-63
2021/05/01 08:20:12;;;;;;;9.82;1.48;;;15.80;58.10;;;;;;5092992;28;20052;-64
2021/05/01 08:22:39;;;;;;;4.70;1.00;;;15.90;58.00;;;;;;5092729;28;20070;-64
2021/05/01 08:25:06;;;;;;;7.88;1.48;;;15.90;58.00;;;;;;5091373;28;20028;-61
2021/05/01 08:27:32;;;;;;;6.63;1.20;;;16.00;57.50;;;;;;5092473;28;20032;-62
2021/05/01 08:29:58;;;;;;;3.13;1.33;;;16.00;57.10;;;;;;5092848;28;20066;-62
2021/05/01 08:32:24;;;;;;;1.95;1.23;;;16.00;57.00;;;;;;5092644;28;20020;-61
2021/05/01 08:34:49;;;;;;;3.28;1.00;;;16.10;57.00;;;;;;5092606;28;20024;-61
2021/05/01 08:37:15;;;;;;;4.40;1.30;;;16.10;57.00;;;;;;5092555;28;20061;-61
2021/05/01 08:39:41;;;;;;;6.18;1.20;;;15.90;57.90;;;;;;5092289;28;20051;-60
2021/05/01 08:42:07;;;;;;;2.22;1.10;;;16.20;58.50;;;;;;5092533;28;20110;-61
2021/05/01 08:44:32;;;;;;;3.47;1.25;;;16.20;56.90;;;;;;5092549;28;20457;-60
2021/05/01 08:46:58;;;;;;;3.03;0.95;;;16.40;56.50;;;;;;5092079;28;20039;-61
2021/05/01 08:49:24;;;;;;;1.88;1.10;;;16.40;56.20;;;;;;5092314;28;20028;-61
2021/05/01 08:51:50;;;;;;;3.15;1.20;;;16.30;56.10;;;;;;5092494;28;20154;-60
2021/05/01 08:54:15;;;;;;;6.90;1.67;;;16.50;56.10;;;;;;5092412;28;20020;-62
2021/05/01 08:56:42;;;;;;;4.32;1.08;;;16.50;56.20;;;;;;5092206;28;20032;-63
2021/05/01 08:59:08;;;;;;;1.90;0.93;;;16.50;56.60;;;;;;5092859;28;20020;-62
2021/05/01 09:01:38;;;;;;;2.58;1.20;;;16.60;56.60;;;;;;5096417;28;20085;-61
2021/05/01 09:04:05;;;;;;;4.05;0.95;;;16.60;57.40;;;;;;5096696;28;20056;-61
2021/05/01 09:06:32;;;;;;;2.95;1.00;;;16.70;56.30;;;;;;5096179;28;20043;-60
2021/05/01 09:09:00;;;;;;;4.43;0.90;;;16.70;55.50;;;;;;5094952;28;20031;-61
2021/05/01 09:11:43;;;;;;;3.10;1.25;;;16.70;56.00;;;;;;5096402;28;20020;-60
2021/05/01 09:14:26;;;;;;;2.38;0.93;;;16.70;56.20;;;;;;5096545;28;20048;-61
2021/05/01 09:17:02;;;;;;;1.77;1.17;;;16.80;56.00;;;;;;5096195;28;20078;-61
2021/05/01 09:19:37;;;;;;;3.13;1.00;;;16.80;56.20;;;;;;5096199;28;20024;-61
2021/05/01 09:22:07;;;;;;;4.00;1.23;;;16.80;56.10;;;;;;5096476;28;20012;-61
2021/05/01 09:24:33;;;;;;;5.40;1.20;;;16.90;81.10;;;;;;5096046;28;20023;-61
2021/05/01 09:27:00;;;;;;;3.28;1.08;;;16.90;56.50;;;;;;5095390;28;20047;-61
2021/05/01 09:29:31;;;;;;;6.78;1.25;;;16.90;57.20;;;;;;5096044;28;20043;-61
2021/05/01 09:32:00;;;;;;;3.42;1.58;;;16.90;57.80;;;;;;5094589;28;20035;-61
2021/05/01 09:34:58;;;;;;;5.65;1.33;;;16.90;58.20;;;;;;5095892;28;20012;-61
2021/05/01 09:37:27;;;;;;;5.10;1.50;;;17.00;58.80;;;;;;5039796;28;20488;-62
2021/05/01 09:39:54;;;;;;;4.13;1.08;;;17.00;59.20;;;;;;5095843;28;20469;-62
2021/05/01 09:42:21;;;;;;;3.33;1.10;;;17.00;59.30;;;;;;5094524;28;20028;-62
2021/05/01 09:44:48;;;;;;;2.80;1.15;;;17.00;59.60;;;;;;5095858;28;20024;-65
2021/05/01 09:47:16;;;;;;;3.58;1.30;;;17.20;60.40;;;;;;5095694;28;20038;-63
2021/05/01 09:49:45;;;;;;;4.53;1.45;;;16.90;84.90;;;;;;5095625;28;20159;-64
2021/05/01 09:52:12;;;;;;;8.77;1.50;;;16.80;61.60;;;;;;5094295;28;20480;-63
2021/05/01 09:54:40;;;;;;;4.15;1.30;;;16.70;62.70;;;;;;5095609;28;20421;-64
2021/05/01 09:57:07;;;;;;;3.22;1.48;;;16.90;63.50;;;;;;5095031;28;20024;-64
2021/05/01 09:59:43;;;;;;;2.40;1.35;;;16.90;64.40;;;;;;5095719;28;20066;-64
2021/05/01 10:02:12;;;;;;;2.35;1.50;;;16.90;64.90;;;;;;5094169;28;20484;-64
2021/05/01 10:04:38;;;;;;;2.05;1.27;;;16.90;65.70;;;;;;5095386;28;20039;-64
2021/05/01 10:07:11;;;;;;;1.70;1.25;;;16.80;65.30;;;;;;5095074;28;20039;-64
2021/05/01 10:09:41;;;;;;;2.30;1.50;;;16.90;65.00;;;;;;5094492;28;20022;-64
2021/05/01 10:12:11;;;;;;;3.10;1.63;;;16.90;64.90;;;;;;5095243;28;20043;-64
2021/05/01 10:14:53;;;;;;;3.55;1.00;;;16.90;64.40;;;;;;5093899;28;20073;-64
2021/05/01 10:17:22;;;;;;;1.70;1.30;;;16.80;65.00;;;;;;5093500;28;20213;-64
2021/05/01 10:19:52;;;;;;;2.97;1.58;;;16.80;65.00;;;;;;5095012;28;20537;-64
2021/05/01 10:22:29;;;;;;;2.67;1.50;;;16.80;65.60;;;;;;5094914;28;20102;-64
2021/05/01 10:25:00;;;;;;;1.65;1.33;;;16.70;65.30;;;;;;5094916;28;20115;-64
2021/05/01 10:27:27;;;;;;;1.40;1.13;;;16.80;66.60;;;;;;5094566;28;20032;-63
2021/05/01 10:30:37;;;;;;;1.38;1.20;;;16.80;66.20;;;;;;5094945;28;20126;-63
2021/05/01 10:33:17;;;;;;;1.80;1.10;;;16.70;66.30;;;;;;5093947;28;20067;-63
2021/05/01 10:35:48;;;;;;;2.13;1.67;;;16.50;66.90;;;;;;5094325;28;20052;-64
2021/05/01 10:38:17;;;;;;;2.22;1.40;;;16.50;68.20;;;;;;5094683;28;20024;-64
2021/05/01 10:40:54;;;;;;;3.95;1.80;;;16.70;68.00;;;;;;5094712;28;20059;-64
2021/05/01 10:43:31;;;;;;;1.40;1.30;;;16.70;68.30;;;;;;5094599;28;20102;-60
2021/05/01 10:46:05;;;;;;;2.47;1.40;;;16.80;69.30;;;;;;5094270;28;20092;-64
2021/05/01 10:48:32;;;;;;;2.78;1.50;;;16.80;69.30;;;;;;5092911;28;20074;-63
2021/05/01 10:51:01;;;;;;;1.45;1.20;;;16.90;69.20;;;;;;5094231;28;20059;-64
2021/05/01 10:53:27;;;;;;;2.63;1.50;;;16.80;69.20;;;;;;5094461;28;20503;-63
2021/05/01 10:55:54;;;;;;;5.03;1.60;;;16.80;68.90;;;;;;5092950;28;20024;-63
2021/05/01 10:58:47;;;;;;;1.83;1.10;;;16.80;67.80;;;;;;5092729;28;20110;-61
2021/05/01 11:01:32;;;;;;;2.55;1.35;;;16.30;90.70;;;;;;5094308;28;20055;-64
2021/05/01 11:04:01;;;;;;;2.20;1.40;;;16.70;67.80;;;;;;5094387;28;20024;-65
2021/05/01 11:06:28;;;;;;;1.77;1.30;;;16.60;68.90;;;;;;5093982;28;20036;-64
2021/05/01 11:09:31;;;;;;;1.60;1.38;;;16.70;69.00;;;;;;5094119;28;20058;-64
2021/05/01 11:12:00;;;;;;;2.63;1.40;;;16.70;68.60;;;;;;5069024;28;20032;-64
2021/05/01 11:14:31;;;;;;;1.40;1.30;;;16.70;68.90;;;;;;5094339;28;20016;-65
2021/05/01 11:17:12;;;;;;;3.35;1.42;;;16.70;69.10;;;;;;5094216;28;20016;-64
2021/05/01 11:19:45;;;;;;;3.33;1.45;;;16.30;69.10;;;;;;5093826;28;20112;-64
2021/05/01 11:22:19;;;;;;;1.58;1.48;;;16.60;69.40;;;;;;5094257;28;20073;-64
2021/05/01 11:24:46;;;;;;;3.67;1.30;;;16.60;69.60;;;;;;5094274;28;20384;-64
2021/05/01 11:27:12;;;;;;;2.40;1.17;;;16.60;69.70;;;;;;5093677;28;20119;-64
2021/05/01 11:29:41;;;;;;;2.35;1.40;;;16.60;69.90;;;;;;5094024;28;20028;-64
2021/05/01 11:32:07;;;;;;;1.70;1.48;;;16.50;70.10;;;;;;5092457;28;20016;-64
2021/05/01 11:34:34;;;;;;;1.98;1.63;;;16.50;70.20;;;;;;5092263;28;20102;-64
2021/05/01 11:37:04;;;;;;;2.92;1.38;;;16.50;70.20;;;;;;5093299;28;20047;-64
2021/05/01 11:39:30;;;;;;;1.55;1.30;;;16.20;70.20;;;;;;5093989;28;20055;-63
2021/05/01 11:41:57;;;;;;;1.83;1.40;;;16.50;70.50;;;;;;5093446;28;20069;-63
2021/05/01 11:44:25;;;;;;;1.95;1.85;;;16.50;70.60;;;;;;5093630;28;20024;-63
2021/05/01 11:47:04;;;;;;;2.50;1.55;;;16.50;70.50;;;;;;5093429;28;20040;-62
2021/05/01 11:49:30;;;;;;;2.17;1.20;;;16.60;69.50;;;;;;5093389;28;20032;-61
2021/05/01 11:52:13;;;;;;;2.20;1.50;;;16.80;69.70;;;;;;5093452;28;20028;-64
2021/05/01 11:54:48;;;;;;;6.55;1.70;;;16.60;69.30;;;;;;5093472;28;20085;-64
2021/05/01 11:57:45;;;;;;;2.83;1.70;;;16.60;69.90;;;;;;5093423;28;20392;-63
2021/05/01 12:00:12;;;;;;;4.40;1.92;;;16.60;65.70;;;;;;5093359;28;20027;-63
2021/05/01 12:02:45;;;;;;;3.72;1.88;;;16.50;66.50;;;;;;5092029;28;20559;-63
2021/05/01 12:05:11;;;;;;;2.90;1.77;;;16.50;67.20;;;;;;5093299;28;20020;-62
2021/05/01 12:07:40;;;;;;;4.28;1.77;;;;;;;;;;5091651;28;20046;-62
2021/05/01 12:10:09;;;;;;;5.05;2.00;;;16.40;66.00;;;;;;5093065;28;20020;-61
2021/05/01 12:12:39;;;;;;;4.68;1.77;;;16.40;65.60;;;;;;5093282;28;20028;-61
2021/05/01 12:15:08;;;;;;;3.10;1.92;;;16.40;65.00;;;;;;5093075;28;20096;-61
2021/05/01 12:17:35;;;;;;;6.72;2.42;;;16.40;64.40;;;;;;5092896;28;20031;-63
2021/05/01 12:20:08;;;;;;;5.80;2.47;;;16.40;63.40;;;;;;5093236;28;20506;-61
2021/05/01 12:22:34;;;;;;;3.72;2.63;;;16.40;63.30;;;;;;5092983;28;20024;-62
2021/05/01 12:24:59;;;;;;;3.63;2.03;;;16.40;62.10;;;;;;5092940;28;20384;-61
2021/05/01 12:27:51;;;;;;;5.20;2.10;;;16.40;61.80;;;;;;5093042;28;20064;-61
2021/05/01 12:30:40;;;;;;;4.95;2.22;;;16.30;61.50;;;;;;5093112;28;20073;-61
2021/05/01 12:33:24;;;;;;;6.43;2.50;;;16.30;60.80;;;;;;5079921;28;20036;-61
2021/05/01 12:35:56;;;;;;;3.47;2.30;;;16.30;83.30;;;;;;5092507;28;20079;-61
2021/05/01 12:38:24;;;;;;;4.90;1.60;;;17.40;60.10;;;;;;5092768;28;20449;-61
2021/05/01 12:41:10;;;;;;;4.55;1.98;;;16.30;59.30;;;;;;5092604;28;20028;-61
2021/05/01 12:43:37;;;;;;;4.13;1.77;;;16.30;58.90;;;;;;5078404;28;20071;-61
2021/05/01 12:46:42;;;;;;;3.33;1.83;;;16.30;82.00;;;;;;5092534;28;20107;-61
2021/05/01 12:49:19;;;;;;;3.38;1.88;;;16.30;58.40;;;;;;5092043;28;20064;-61
2021/05/01 12:51:57;;;;;;;4.43;1.90;;;16.30;57.90;;;;;;5091354;28;20027;-61
2021/05/01 12:54:22;;;;;;;4.60;2.08;;;16.30;57.50;;;;;;5092603;28;20103;-62